Timeline UpdatesTrip UpdatesNews PostsPvt PostsTravel TipsAdmin PostsConv PostsFollowed PostsChat RequestsBlog PostsPNR Posts

Disclaimer
Search
 
 
Thu Oct 2, 2014 07:53:15 ISTHomeTrainsΣChainsAtlasPNRForumGalleryNewsFAQTripsMembersLoginFeedback
No Recent News for this Train
Other Trains in the News **new
Latest...
Tr.No.17406 Adilabad -Tirupati Express is cancelled o­n 27.04.2014.
Sat Apr 26, 2014 (03:22PM)
⇐ Return Journey: Train# 17405

17406/Krishna Express

Time-Table HAS CHANGED.
Sep 03 (11:11AM)
Change Departure Station:
Change Arrival Station:
Post a Train Travel TipPost a Train Travel Tip **new
Post a Comment/Question/Picture/VideoPost a Comment/Question/Picture/Video
Inaugural Run
Wed Oct 02, 1974
Pantry/Catering
✕ NO Pantry Car
✓ Catering Avbl
Loco/Rake Reversals
MUE/Mudkhed Junction (4); SC/Secunderabad Junction (10);
RSA - Rake Sharing
17405/17406/17409/17410 has RSA.
Rake/Coach Composition
Loco-SLR-GS-D6-D5-D4-D3-D2-D1-S2-S1-C1-B1-GS-GS-GS-GS-GS-SLR
Loco
ADB - SC: KZJ WDG-3A. SC - TPTY: LGD WAP4/7.
News    PNR    Forum    Time-Table    Availability    Fare Chart    Map    Arr/Dep History    Trips    Gallery    ΣChains    X/O    Timeline    
Travel Time: 22h 5m    55 halts    Distance: 1006 km    Avg Speed: 45 km/hr
Type: Mail/Express
Zone: SCR/South Central
Departs @ 23:20 (Avg 6m late)
Platform# 1
SMTWTFS
Bhokar/BOKR 
Arrives @ 21:25 +1 night (Avg 18m late)
Platform# 1
SMTWTFS
Tirupati Main/TPTY 

55 halts. 158 intermediate Stations between Bhokar and Tirupati Main

Show ALL intermediate Stations  Show Old Time-Table

#CodeStation NameX/OArrivesAvgDepartsAvgHaltPFDay#KmSpeedElevZoneAddress
1ADBAdilabad (3)  -20:45+111-141.880248mSCRAdilabad, Telangana
2KNVTKinwat (2)  21:03 21:19+2421:04 21:20+261m11-96.563319mSCRKinwat, Maharashtra
3BHBKBodhadi Bujrug  21:44 21:34+1421:45 21:35+141m--1-81.875357mSCRKinwat, Maharashtra
4SHSKSahasrakund  22:14 21:59+2022:15 22:00+201m--1-51.749402mSCRNanded, Maharashtra
5HEMHimayatnagar  22:29 22:19+1922:30 22:20+201m--1-36.137398mSCRNanded, Maharashtra
6BOKRBhokar»  23:24 23:19+423:25 23:20+61m110.028460mSCRBhokar, Maharashtra
7MUEMudkhed Junction (4)O↵¶00:05-200:15+810m2221.234378mSCRMudkhed, Maharashtra
8UMRIUmri (1)X  00:49-100:50+51m1240.665381mSCRHuzur Sahib Nanded, Maharashtra
9DABDharmabad (2)X  01:17+1301:18+171m1270.135354mSCRDegaon, Maharashtra
10BSXBasar (2)X  01:35+1301:37+162m1279.953358mSCRDist Adilabad, Telangana
11NZBNizamabad (3)  02:10+1602:15+235m12109.371384mSCRNizamabad, Telangana
12KMCKamareddi (3)  03:00 02:59+3003:01+301 2m12161.267528mSCRNizamabad Dist., Telangana
13AKEAkanapet (1)O  03:24+3003:25+301m12186.992566mSCRMedak District., Telangana
14MZLMirzapalli (1)  03:32+3103:33+321m12197.743530mSCRMedak Dist., Telangana
15BMOBolarum (3)X  04:55+704:56+81m12256.327597mSCRSecunderabad, Telangana
16MJFMalkajgiri (3)X  05:19+105:20+31m22266.58535mSCRSecunderabad, Telangana
17SCSecunderabad Junction (10)X05:45+1506:05+1820m62270.043539mSCRSecunderabad 500003, Telangana
18MLYMoula Ali (2)X  06:13+3206:14+321m12275.757520mSCRSecunderabad, Telangana
19CHZCharlapalli (2)  06:21+3706:22+381m22282.376523mSCRRangareddy Dist., Telangana
20BGBhongir (3)X  06:49+4006:50+411m22316.397455mSCRNalgonda Dist., Telangana
21RAGRaigir (2)X  06:54-06:55-1m22322.873415mSCRNalgonda, Telangana
22ALERAler (2)X  07:08+4607:09+481m22338.672366mSCRNalgonda Dist., Telangana
23PBPPembarti (2)  07:17+4707:18+491m22348.241382mSCRWarangal Dist., Telangana
24ZNJangaon (2)  07:26+5007:27+521m22353.775380mSCRWarangal Dist., Telangana
25RGPRaghunathpalli (2)  07:36+5207:37+531m22365.084357mSCRWarangal Dist., Telangana
26GNPGhanpur (2)  07:49+5807:50+591m22381.743344mSCRWarangal Dist. / Enq Ph : 08711 220231, Telangana
27KZJKazipet Junction (3)X  08:18+4608:20+502m22401.651292mSCRWarangal Dist., Telangana
28WLWarangal (3)  08:32+1:0008:34+1:022m12411.874271mSCRWarangal., Telangana
29NKDNekonda (2)  08:58+1:0708:59+1:071m12441.577236mSCRWarangal Dist., Telangana
30KDMKesamudram (2)X  09:11+1:1109:12+1:121m12456.981223mSCRWarangal Dist., Telangana
31MABDMahbubabad (2)  09:23+1:1509:24+1:171m12471.9107200mSCRWarangal Dist., Telangana
32GLAGarla (2)X  09:35-09:36-1m12491.518156mSCRKhammam Dist., Telangana
33DKJDornakal Junction (3)  09:52+1:0909:54+1:082m22496.392153mSCRWarangal District, Telangana
34KMTKhammam (2)X  10:09+1:0310:11+1:042m12519.388118mSCRKhammam 507001, Telangana
35BKLBona Kalu (2)  10:30+1:1710:31+1:171m12547.28597mSCRKhammam Dist., Telangana
36MDRMadhira (2)  10:43+1:2310:44+1:231m12564.18461mSCRKhammam Dist., Telangana
37YPErrupalem (2)X  10:55+1:3210:56+1:331m--2579.61857mSCRKhammam Dist., Telangana
38KIKondapalli (2)XO  12:18+3412:20+342m22604.12735mSCRKondapalli, Andhra Pradesh
39BZAVijayawada Junction (10)X  12:55+2513:15+2220m102619.74524mSCRVijayawada 520001, Andhra Pradesh
40PVDPeddavadiapudi (3)X  13:31+3113:32+331m--2631.66520mSCRKL University to NH 5, Andhra Pradesh
41DIGDuggirala (3)X  13:41+3613:42+381m--2641.33616mSCRDuggirala, Andhra Pradesh
42TELTenali Junction (5)  13:58+3114:00+342m32650.97716mSCRTel: 08644-227834, Andhra Pradesh
43TSRTsunduru (3)  14:09+3814:10+381m--2662.55712mSCRTsunduru, Andhra Pradesh
44NDONidubrolu (3)  14:21+3914:22+401m--2673.0699mSCRNidubrolu, Andhra Pradesh
45BPPBapatla (3)X  14:40+4314:41+451m--2693.58210mSCRBapatla, Andhra Pradesh
46CLXChirala (4)  14:52+4714:53+491m--2708.6598mSCRChirala, Andhra Pradesh
47VTMVetapalem (3)X  15:01+5415:02+561m--2716.5758mSCRVetapalem, Andhra Pradesh
48CJMChinnaganjam (3)  15:12+5515:13+561m--2728.9779mSCRChinna Ganjam, Andhra Pradesh
49ANBAmmanabrolu (3)X  15:24+5715:25+591m--2743.14316mSCRAmmanabrolu, Andhra Pradesh
50OGLOngole (3)  15:46+5115:48+542m32758.07012mSCROngole, Andhra Pradesh
51TNRTanguturu (3)  16:04+1:0416:05+1:051m12776.67210mSCRTanguturu, Andhra Pradesh
52SKMSingarayakonda (2)X  16:13+1:0316:14+1:041m22786.29926mSCRSingarayakonda, Andhra Pradesh
53KVZKavali (4)X  16:37+2616:39+262m22824.08221mSCRKavali, Andhra Pradesh
54BTTRBitragunta (2)X  16:51+4116:52+351m22840.44515mSCRBitragunta, Andhra Pradesh
55NLRNellore (4)  17:38+2517:40+252m32874.74821mSCRNellore, Andhra Pradesh
56VDEVedayapalem (2)XO  17:49+1217:50+131m22882.01927mSCRNellore, Andhra Pradesh
57GDRGudur Junction (3)  19:08 19:28+2519:10 19:30+242m32913.26819mSCRGudur, Andhra Pradesh
58VDDVendodu (2)X  19:27 19:47+4419:28 19:48+461m--2932.49955mSCRNellore, Andhra Pradesh
59VKIVenkatagiri (3)  19:40 19:58+5519:41 20:00+571 2m22948.98277mSCRNellore District, Andhra Pradesh
60KHTSri Kalahasti (2)X  20:01 20:18+5120:02 20:20+511 2m12973.47068mSCRChittoor District, Andhra Pradesh
61RURenigunta Junction (5)O  20:35 20:40+3420:40 20:45+335m--2996.615113mSCRChittoor District, Andhra Pradesh
62TPTYTirupati Main (5)•  21:25+18-121006.5-150mSCRChittoor Distt, Andhra Pradesh
Scroll to Top
Scroll to Bottom